sensor_id;sensor_type;location;lat;lon;timestamp;temperature;humidity
37678;DHT22;23517;50.390;8.616;2023-03-05T00:01:17;4.20;48.20
37678;DHT22;23517;50.390;8.616;2023-03-05T00:03:48;4.20;48.30
37678;DHT22;23517;50.390;8.616;2023-03-05T00:06:14;4.20;48.10
37678;DHT22;23517;50.390;8.616;2023-03-05T00:08:42;4.20;48.30
37678;DHT22;23517;50.390;8.616;2023-03-05T00:11:11;4.20;48.00
37678;DHT22;23517;50.390;8.616;2023-03-05T00:13:38;4.20;47.80
37678;DHT22;23517;50.390;8.616;2023-03-05T00:16:08;4.20;47.60
37678;DHT22;23517;50.390;8.616;2023-03-05T00:18:37;4.20;46.90
37678;DHT22;23517;50.390;8.616;2023-03-05T00:21:12;4.20;46.10
37678;DHT22;23517;50.390;8.616;2023-03-05T00:23:46;4.20;45.70
37678;DHT22;23517;50.390;8.616;2023-03-05T00:26:12;4.20;45.60
37678;DHT22;23517;50.390;8.616;2023-03-05T00:28:39;4.20;45.70
37678;DHT22;23517;50.390;8.616;2023-03-05T00:31:06;4.20;45.80
37678;DHT22;23517;50.390;8.616;2023-03-05T00:33:35;4.20;45.90
37678;DHT22;23517;50.390;8.616;2023-03-05T00:36:05;4.20;46.00
37678;DHT22;23517;50.390;8.616;2023-03-05T00:38:33;4.20;46.10
37678;DHT22;23517;50.390;8.616;2023-03-05T00:41:01;4.20;46.70
37678;DHT22;23517;50.390;8.616;2023-03-05T00:43:28;4.10;45.60
37678;DHT22;23517;50.390;8.616;2023-03-05T00:45:55;4.20;45.50
37678;DHT22;23517;50.390;8.616;2023-03-05T00:48:22;4.10;45.50
37678;DHT22;23517;50.390;8.616;2023-03-05T00:50:48;4.10;45.60
37678;DHT22;23517;50.390;8.616;2023-03-05T00:53:15;4.10;45.90
37678;DHT22;23517;50.390;8.616;2023-03-05T00:55:42;4.10;46.30
37678;DHT22;23517;50.390;8.616;2023-03-05T00:58:09;4.10;46.30
37678;DHT22;23517;50.390;8.616;2023-03-05T01:00:35;4.10;46.50
37678;DHT22;23517;50.390;8.616;2023-03-05T01:03:04;4.00;46.30
37678;DHT22;23517;50.390;8.616;2023-03-05T01:05:31;4.00;46.60
37678;DHT22;23517;50.390;8.616;2023-03-05T01:07:57;4.00;46.80
37678;DHT22;23517;50.390;8.616;2023-03-05T01:10:32;4.00;47.10
37678;DHT22;23517;50.390;8.616;2023-03-05T01:12:58;4.00;47.50
37678;DHT22;23517;50.390;8.616;2023-03-05T01:15:25;4.00;47.50
37678;DHT22;23517;50.390;8.616;2023-03-05T01:17:52;4.00;47.50
37678;DHT22;23517;50.390;8.616;2023-03-05T01:20:21;3.90;47.80
37678;DHT22;23517;50.390;8.616;2023-03-05T01:22:48;3.90;48.50
37678;DHT22;23517;50.390;8.616;2023-03-05T01:25:16;3.90;48.70
37678;DHT22;23517;50.390;8.616;2023-03-05T01:27:43;3.90;49.00
37678;DHT22;23517;50.390;8.616;2023-03-05T01:30:13;3.80;49.30
37678;DHT22;23517;50.390;8.616;2023-03-05T01:32:41;3.80;50.00
37678;DHT22;23517;50.390;8.616;2023-03-05T01:35:14;3.80;50.80
37678;DHT22;23517;50.390;8.616;2023-03-05T01:37:42;3.70;50.90
37678;DHT22;23517;50.390;8.616;2023-03-05T01:40:11;3.70;51.40
37678;DHT22;23517;50.390;8.616;2023-03-05T01:42:39;3.70;51.60
37678;DHT22;23517;50.390;8.616;2023-03-05T01:45:12;3.60;51.80
37678;DHT22;23517;50.390;8.616;2023-03-05T01:47:41;3.60;52.00
37678;DHT22;23517;50.390;8.616;2023-03-05T01:50:14;3.60;52.40
37678;DHT22;23517;50.390;8.616;2023-03-05T01:52:49;3.60;52.90
37678;DHT22;23517;50.390;8.616;2023-03-05T01:55:21;3.50;53.30
37678;DHT22;23517;50.390;8.616;2023-03-05T01:57:56;3.50;53.50
37678;DHT22;23517;50.390;8.616;2023-03-05T02:00:43;3.50;53.80
37678;DHT22;23517;50.390;8.616;2023-03-05T02:03:12;3.50;54.20
37678;DHT22;23517;50.390;8.616;2023-03-05T02:05:41;3.50;54.60
37678;DHT22;23517;50.390;8.616;2023-03-05T02:08:12;3.40;54.80
37678;DHT22;23517;50.390;8.616;2023-03-05T02:10:44;3.40;54.80
37678;DHT22;23517;50.390;8.616;2023-03-05T02:13:16;3.40;54.80
37678;DHT22;23517;50.390;8.616;2023-03-05T02:15:45;3.40;55.10
37678;DHT22;23517;50.390;8.616;2023-03-05T02:18:13;3.40;55.10
37678;DHT22;23517;50.390;8.616;2023-03-05T02:20:52;3.40;55.20
37678;DHT22;23517;50.390;8.616;2023-03-05T02:23:24;3.40;54.80
37678;DHT22;23517;50.390;8.616;2023-03-05T02:25:53;3.50;54.50
37678;DHT22;23517;50.390;8.616;2023-03-05T02:31:15;3.50;52.70
37678;DHT22;23517;50.390;8.616;2023-03-05T02:33:44;3.50;51.60
37678;DHT22;23517;50.390;8.616;2023-03-05T02:36:11;3.60;51.20
37678;DHT22;23517;50.390;8.616;2023-03-05T02:38:39;3.60;50.90
37678;DHT22;23517;50.390;8.616;2023-03-05T02:41:06;3.60;51.00
37678;DHT22;23517;50.390;8.616;2023-03-05T02:43:35;3.70;50.90
37678;DHT22;23517;50.390;8.616;2023-03-05T02:46:03;3.70;51.40
37678;DHT22;23517;50.390;8.616;2023-03-05T02:48:35;3.70;50.20
37678;DHT22;23517;50.390;8.616;2023-03-05T02:51:03;3.60;50.20
37678;DHT22;23517;50.390;8.616;2023-03-05T02:53:31;3.60;49.90
37678;DHT22;23517;50.390;8.616;2023-03-05T02:55:57;3.70;49.80
37678;DHT22;23517;50.390;8.616;2023-03-05T02:58:24;3.60;49.60
37678;DHT22;23517;50.390;8.616;2023-03-05T03:00:51;3.70;49.40
37678;DHT22;23517;50.390;8.616;2023-03-05T03:03:17;3.60;49.00
37678;DHT22;23517;50.390;8.616;2023-03-05T03:05:44;3.60;49.20
37678;DHT22;23517;50.390;8.616;2023-03-05T03:08:11;3.60;48.40
37678;DHT22;23517;50.390;8.616;2023-03-05T03:10:37;3.60;48.40
37678;DHT22;23517;50.390;8.616;2023-03-05T03:13:04;3.60;47.70
37678;DHT22;23517;50.390;8.616;2023-03-05T03:15:32;3.60;47.50
37678;DHT22;23517;50.390;8.616;2023-03-05T03:17:58;3.60;47.30
37678;DHT22;23517;50.390;8.616;2023-03-05T03:20:25;3.60;47.60
37678;DHT22;23517;50.390;8.616;2023-03-05T03:22:52;3.60;47.50
37678;DHT22;23517;50.390;8.616;2023-03-05T03:25:21;3.50;47.60
37678;DHT22;23517;50.390;8.616;2023-03-05T03:27:48;3.50;47.90
37678;DHT22;23517;50.390;8.616;2023-03-05T03:30:15;3.50;47.60
37678;DHT22;23517;50.390;8.616;2023-03-05T03:32:42;3.50;47.80
37678;DHT22;23517;50.390;8.616;2023-03-05T03:35:09;3.50;48.00
37678;DHT22;23517;50.390;8.616;2023-03-05T03:37:36;3.40;48.00
37678;DHT22;23517;50.390;8.616;2023-03-05T03:40:04;3.40;48.30
37678;DHT22;23517;50.390;8.616;2023-03-05T03:42:32;3.40;48.50
37678;DHT22;23517;50.390;8.616;2023-03-05T03:44:58;3.50;48.40
37678;DHT22;23517;50.390;8.616;2023-03-05T03:47:28;3.50;48.50
37678;DHT22;23517;50.390;8.616;2023-03-05T03:49:56;3.50;48.20
37678;DHT22;23517;50.390;8.616;2023-03-05T03:52:27;3.40;47.70
37678;DHT22;23517;50.390;8.616;2023-03-05T03:54:56;3.40;47.60
37678;DHT22;23517;50.390;8.616;2023-03-05T03:57:35;3.40;47.90
37678;DHT22;23517;50.390;8.616;2023-03-05T04:00:04;3.40;47.50
37678;DHT22;23517;50.390;8.616;2023-03-05T04:02:32;3.40;47.30
37678;DHT22;23517;50.390;8.616;2023-03-05T04:04:59;3.40;46.60
37678;DHT22;23517;50.390;8.616;2023-03-05T04:07:26;3.40;45.50
37678;DHT22;23517;50.390;8.616;2023-03-05T04:09:52;3.40;44.40
37678;DHT22;23517;50.390;8.616;2023-03-05T04:12:19;3.30;43.90
37678;DHT22;23517;50.390;8.616;2023-03-05T04:14:47;3.30;43.90
37678;DHT22;23517;50.390;8.616;2023-03-05T04:17:14;3.30;43.80
37678;DHT22;23517;50.390;8.616;2023-03-05T04:19:41;3.30;42.60
37678;DHT22;23517;50.390;8.616;2023-03-05T04:22:15;3.30;42.50
37678;DHT22;23517;50.390;8.616;2023-03-05T04:24:43;3.30;42.20
37678;DHT22;23517;50.390;8.616;2023-03-05T04:27:10;3.30;41.90
37678;DHT22;23517;50.390;8.616;2023-03-05T04:29:36;3.30;42.10
37678;DHT22;23517;50.390;8.616;2023-03-05T04:32:04;3.30;41.90
37678;DHT22;23517;50.390;8.616;2023-03-05T04:34:31;3.30;41.70
37678;DHT22;23517;50.390;8.616;2023-03-05T04:36:58;3.20;41.90
37678;DHT22;23517;50.390;8.616;2023-03-05T04:39:27;3.20;42.00
37678;DHT22;23517;50.390;8.616;2023-03-05T04:41:54;3.20;42.10
37678;DHT22;23517;50.390;8.616;2023-03-05T04:44:21;3.20;42.30
37678;DHT22;23517;50.390;8.616;2023-03-05T04:46:48;3.20;42.10
37678;DHT22;23517;50.390;8.616;2023-03-05T04:49:15;3.20;41.90
37678;DHT22;23517;50.390;8.616;2023-03-05T04:51:42;3.20;41.70
37678;DHT22;23517;50.390;8.616;2023-03-05T04:54:13;3.20;42.00
37678;DHT22;23517;50.390;8.616;2023-03-05T04:56:40;3.20;42.00
37678;DHT22;23517;50.390;8.616;2023-03-05T04:59:06;3.20;42.00
37678;DHT22;23517;50.390;8.616;2023-03-05T05:01:33;3.10;42.10
37678;DHT22;23517;50.390;8.616;2023-03-05T05:04:00;3.10;43.00
37678;DHT22;23517;50.390;8.616;2023-03-05T05:06:27;3.10;43.70
37678;DHT22;23517;50.390;8.616;2023-03-05T05:08:54;3.00;43.60
37678;DHT22;23517;50.390;8.616;2023-03-05T05:11:20;2.90;44.30
37678;DHT22;23517;50.390;8.616;2023-03-05T05:13:47;2.90;44.90
37678;DHT22;23517;50.390;8.616;2023-03-05T05:16:14;2.90;45.50
37678;DHT22;23517;50.390;8.616;2023-03-05T05:18:41;2.90;46.20
37678;DHT22;23517;50.390;8.616;2023-03-05T05:21:10;2.80;46.70
37678;DHT22;23517;50.390;8.616;2023-03-05T05:23:38;2.80;46.70
37678;DHT22;23517;50.390;8.616;2023-03-05T05:26:06;2.80;46.80
37678;DHT22;23517;50.390;8.616;2023-03-05T05:28:36;2.80;46.90
37678;DHT22;23517;50.390;8.616;2023-03-05T05:31:09;2.80;46.80
37678;DHT22;23517;50.390;8.616;2023-03-05T05:33:37;2.80;47.20
37678;DHT22;23517;50.390;8.616;2023-03-05T05:36:05;2.80;47.00
37678;DHT22;23517;50.390;8.616;2023-03-05T05:38:34;2.70;47.60
37678;DHT22;23517;50.390;8.616;2023-03-05T05:41:02;2.70;47.70
37678;DHT22;23517;50.390;8.616;2023-03-05T05:43:32;2.70;47.40
37678;DHT22;23517;50.390;8.616;2023-03-05T05:46:01;2.80;45.70
37678;DHT22;23517;50.390;8.616;2023-03-05T05:48:31;2.70;46.00
37678;DHT22;23517;50.390;8.616;2023-03-05T05:50:58;2.80;45.90
37678;DHT22;23517;50.390;8.616;2023-03-05T05:53:25;2.80;45.60
37678;DHT22;23517;50.390;8.616;2023-03-05T05:55:52;2.80;45.10
37678;DHT22;23517;50.390;8.616;2023-03-05T05:58:19;2.80;44.60
37678;DHT22;23517;50.390;8.616;2023-03-05T06:00:45;2.80;44.10
37678;DHT22;23517;50.390;8.616;2023-03-05T06:03:12;2.80;43.90
37678;DHT22;23517;50.390;8.616;2023-03-05T06:05:41;2.80;43.70
37678;DHT22;23517;50.390;8.616;2023-03-05T06:08:08;2.80;43.60
37678;DHT22;23517;50.390;8.616;2023-03-05T06:10:35;2.80;43.60
37678;DHT22;23517;50.390;8.616;2023-03-05T06:13:02;2.90;43.60
37678;DHT22;23517;50.390;8.616;2023-03-05T06:15:29;2.90;43.20
37678;DHT22;23517;50.390;8.616;2023-03-05T06:17:58;2.90;43.10
37678;DHT22;23517;50.390;8.616;2023-03-05T06:20:25;2.90;43.20
37678;DHT22;23517;50.390;8.616;2023-03-05T06:22:53;3.00;42.90
37678;DHT22;23517;50.390;8.616;2023-03-05T06:25:20;3.00;42.60
37678;DHT22;23517;50.390;8.616;2023-03-05T06:27:47;3.00;42.70
37678;DHT22;23517;50.390;8.616;2023-03-05T06:30:14;3.00;42.60
37678;DHT22;23517;50.390;8.616;2023-03-05T06:32:40;3.00;42.80
37678;DHT22;23517;50.390;8.616;2023-03-05T06:35:07;3.10;42.80
37678;DHT22;23517;50.390;8.616;2023-03-05T06:37:35;3.10;42.70
37678;DHT22;23517;50.390;8.616;2023-03-05T06:40:01;3.10;42.90
37678;DHT22;23517;50.390;8.616;2023-03-05T06:42:28;3.10;43.00
37678;DHT22;23517;50.390;8.616;2023-03-05T06:44:55;3.10;43.30
37678;DHT22;23517;50.390;8.616;2023-03-05T06:47:22;3.10;43.60
37678;DHT22;23517;50.390;8.616;2023-03-05T06:49:53;3.20;43.90
37678;DHT22;23517;50.390;8.616;2023-03-05T06:52:20;3.20;43.90
37678;DHT22;23517;50.390;8.616;2023-03-05T06:54:49;3.20;44.00
37678;DHT22;23517;50.390;8.616;2023-03-05T06:57:16;3.30;44.40
37678;DHT22;23517;50.390;8.616;2023-03-05T06:59:42;3.30;44.80
37678;DHT22;23517;50.390;8.616;2023-03-05T07:02:10;3.30;45.50
37678;DHT22;23517;50.390;8.616;2023-03-05T07:04:37;3.30;45.90
37678;DHT22;23517;50.390;8.616;2023-03-05T07:07:04;3.40;46.50
37678;DHT22;23517;50.390;8.616;2023-03-05T07:09:32;3.40;46.80
37678;DHT22;23517;50.390;8.616;2023-03-05T07:11:59;3.50;47.30
37678;DHT22;23517;50.390;8.616;2023-03-05T07:14:25;3.50;47.40
37678;DHT22;23517;50.390;8.616;2023-03-05T07:16:52;3.50;47.60
37678;DHT22;23517;50.390;8.616;2023-03-05T07:19:18;3.50;47.90
37678;DHT22;23517;50.390;8.616;2023-03-05T07:21:45;3.60;48.10
37678;DHT22;23517;50.390;8.616;2023-03-05T07:24:12;3.60;48.30
37678;DHT22;23517;50.390;8.616;2023-03-05T07:26:39;3.60;48.40
37678;DHT22;23517;50.390;8.616;2023-03-05T07:29:06;3.60;48.50
37678;DHT22;23517;50.390;8.616;2023-03-05T07:31:32;3.70;48.60
37678;DHT22;23517;50.390;8.616;2023-03-05T07:34:00;3.70;49.00
37678;DHT22;23517;50.390;8.616;2023-03-05T07:36:28;3.60;49.50
37678;DHT22;23517;50.390;8.616;2023-03-05T07:38:55;3.60;49.90
37678;DHT22;23517;50.390;8.616;2023-03-05T07:41:22;3.60;50.10
37678;DHT22;23517;50.390;8.616;2023-03-05T07:43:51;3.60;50.10
37678;DHT22;23517;50.390;8.616;2023-03-05T07:46:21;3.60;50.00
37678;DHT22;23517;50.390;8.616;2023-03-05T07:48:53;3.60;50.30
37678;DHT22;23517;50.390;8.616;2023-03-05T07:51:22;3.60;50.30
37678;DHT22;23517;50.390;8.616;2023-03-05T07:53:50;3.60;50.10
37678;DHT22;23517;50.390;8.616;2023-03-05T07:56:35;3.70;49.70
37678;DHT22;23517;50.390;8.616;2023-03-05T07:59:05;3.70;49.60
37678;DHT22;23517;50.390;8.616;2023-03-05T08:01:34;3.70;49.60
37678;DHT22;23517;50.390;8.616;2023-03-05T08:04:02;3.80;49.30
37678;DHT22;23517;50.390;8.616;2023-03-05T08:06:29;3.80;49.20
37678;DHT22;23517;50.390;8.616;2023-03-05T08:08:57;3.60;49.00
37678;DHT22;23517;50.390;8.616;2023-03-05T08:11:24;3.90;48.60
37678;DHT22;23517;50.390;8.616;2023-03-05T08:13:51;3.90;48.00
37678;DHT22;23517;50.390;8.616;2023-03-05T08:16:19;3.90;47.90
37678;DHT22;23517;50.390;8.616;2023-03-05T08:18:48;3.80;48.00
37678;DHT22;23517;50.390;8.616;2023-03-05T08:21:20;3.90;48.20
37678;DHT22;23517;50.390;8.616;2023-03-05T08:23:52;4.00;47.80
37678;DHT22;23517;50.390;8.616;2023-03-05T08:26:21;4.00;47.60
37678;DHT22;23517;50.390;8.616;2023-03-05T08:28:49;4.10;47.20
37678;DHT22;23517;50.390;8.616;2023-03-05T08:31:19;4.30;46.60
37678;DHT22;23517;50.390;8.616;2023-03-05T08:33:48;4.30;46.10
37678;DHT22;23517;50.390;8.616;2023-03-05T08:36:16;4.40;45.20
37678;DHT22;23517;50.390;8.616;2023-03-05T08:38:42;4.40;45.40
37678;DHT22;23517;50.390;8.616;2023-03-05T08:41:10;4.40;45.20
37678;DHT22;23517;50.390;8.616;2023-03-05T08:43:36;4.40;45.10
37678;DHT22;23517;50.390;8.616;2023-03-05T08:46:04;4.50;45.00
37678;DHT22;23517;50.390;8.616;2023-03-05T08:48:31;4.60;44.70
37678;DHT22;23517;50.390;8.616;2023-03-05T08:51:07;4.50;44.60
37678;DHT22;23517;50.390;8.616;2023-03-05T08:53:43;4.50;44.70
37678;DHT22;23517;50.390;8.616;2023-03-05T08:56:11;4.50;44.20
37678;DHT22;23517;50.390;8.616;2023-03-05T08:58:38;4.60;43.60
37678;DHT22;23517;50.390;8.616;2023-03-05T09:01:05;4.50;44.00
37678;DHT22;23517;50.390;8.616;2023-03-05T09:03:32;4.40;43.30
37678;DHT22;23517;50.390;8.616;2023-03-05T09:06:03;4.50;43.70
37678;DHT22;23517;50.390;8.616;2023-03-05T09:08:32;4.50;43.10
37678;DHT22;23517;50.390;8.616;2023-03-05T09:11:04;4.50;42.80
37678;DHT22;23517;50.390;8.616;2023-03-05T09:13:32;4.50;43.00
37678;DHT22;23517;50.390;8.616;2023-03-05T09:16:05;4.50;43.00
37678;DHT22;23517;50.390;8.616;2023-03-05T09:18:34;4.50;42.90
37678;DHT22;23517;50.390;8.616;2023-03-05T09:21:13;4.50;42.40
37678;DHT22;23517;50.390;8.616;2023-03-05T09:23:43;4.40;42.00
37678;DHT22;23517;50.390;8.616;2023-03-05T09:26:11;4.50;42.30
37678;DHT22;23517;50.390;8.616;2023-03-05T09:28:39;4.40;42.80
37678;DHT22;23517;50.390;8.616;2023-03-05T09:31:07;4.40;43.60
37678;DHT22;23517;50.390;8.616;2023-03-05T09:33:35;4.50;43.30
37678;DHT22;23517;50.390;8.616;2023-03-05T09:36:23;4.60;43.30
37678;DHT22;23517;50.390;8.616;2023-03-05T09:38:52;4.70;42.50
37678;DHT22;23517;50.390;8.616;2023-03-05T09:41:22;4.80;41.90
37678;DHT22;23517;50.390;8.616;2023-03-05T09:44:26;4.90;41.10
37678;DHT22;23517;50.390;8.616;2023-03-05T09:52:52;5.20;39.80
37678;DHT22;23517;50.390;8.616;2023-03-05T09:55:37;5.20;39.10
37678;DHT22;23517;50.390;8.616;2023-03-05T09:58:19;5.20;39.60
37678;DHT22;23517;50.390;8.616;2023-03-05T10:01:35;5.30;39.70
37678;DHT22;23517;50.390;8.616;2023-03-05T10:07:24;5.50;38.60
37678;DHT22;23517;50.390;8.616;2023-03-05T10:09:43;5.70;38.50
37678;DHT22;23517;50.390;8.616;2023-03-05T10:12:26;5.70;38.20
37678;DHT22;23517;50.390;8.616;2023-03-05T10:15:13;5.70;37.70
37678;DHT22;23517;50.390;8.616;2023-03-05T10:21:48;5.70;38.10
37678;DHT22;23517;50.390;8.616;2023-03-05T10:24:28;5.70;37.80
37678;DHT22;23517;50.390;8.616;2023-03-05T10:27:07;5.80;37.60
37678;DHT22;23517;50.390;8.616;2023-03-05T10:39:19;5.90;37.50
37678;DHT22;23517;50.390;8.616;2023-03-05T10:45:37;6.10;38.00
37678;DHT22;23517;50.390;8.616;2023-03-05T10:51:16;6.50;36.80
37678;DHT22;23517;50.390;8.616;2023-03-05T10:53:54;6.50;37.00
37678;DHT22;23517;50.390;8.616;2023-03-05T10:56:24;6.50;36.60
37678;DHT22;23517;50.390;8.616;2023-03-05T10:58:52;6.70;36.70
37678;DHT22;23517;50.390;8.616;2023-03-05T11:01:23;6.60;36.60
37678;DHT22;23517;50.390;8.616;2023-03-05T11:04:03;6.70;35.90
37678;DHT22;23517;50.390;8.616;2023-03-05T11:06:37;6.60;35.60
37678;DHT22;23517;50.390;8.616;2023-03-05T11:17:27;6.50;35.40
37678;DHT22;23517;50.390;8.616;2023-03-05T11:19:57;6.40;35.90
37678;DHT22;23517;50.390;8.616;2023-03-05T11:29:12;6.00;36.60
37678;DHT22;23517;50.390;8.616;2023-03-05T11:31:26;5.90;37.20
37678;DHT22;23517;50.390;8.616;2023-03-05T11:34:20;5.80;37.50
37678;DHT22;23517;50.390;8.616;2023-03-05T11:39:25;5.60;38.00
37678;DHT22;23517;50.390;8.616;2023-03-05T11:41:59;5.60;38.60
37678;DHT22;23517;50.390;8.616;2023-03-05T11:44:40;5.50;38.90
37678;DHT22;23517;50.390;8.616;2023-03-05T11:47:27;5.50;39.10
37678;DHT22;23517;50.390;8.616;2023-03-05T11:50:23;5.60;38.80
37678;DHT22;23517;50.390;8.616;2023-03-05T11:53:19;5.50;38.70
37678;DHT22;23517;50.390;8.616;2023-03-05T11:58:31;5.30;39.10
37678;DHT22;23517;50.390;8.616;2023-03-05T12:01:02;5.40;38.60
37678;DHT22;23517;50.390;8.616;2023-03-05T12:03:34;5.50;38.50
37678;DHT22;23517;50.390;8.616;2023-03-05T12:09:24;5.80;36.40
37678;DHT22;23517;50.390;8.616;2023-03-05T12:21:06;6.60;34.30
37678;DHT22;23517;50.390;8.616;2023-03-05T12:23:57;6.70;34.30
37678;DHT22;23517;50.390;8.616;2023-03-05T12:29:36;6.60;33.80
37678;DHT22;23517;50.390;8.616;2023-03-05T12:35:23;6.30;35.10
37678;DHT22;23517;50.390;8.616;2023-03-05T12:45:35;5.70;36.40
37678;DHT22;23517;50.390;8.616;2023-03-05T13:01:44;5.40;37.30
37678;DHT22;23517;50.390;8.616;2023-03-05T13:04:21;5.40;37.40
37678;DHT22;23517;50.390;8.616;2023-03-05T13:07:10;5.60;37.30
37678;DHT22;23517;50.390;8.616;2023-03-05T13:09:40;5.70;37.10
37678;DHT22;23517;50.390;8.616;2023-03-05T13:12:17;5.80;37.20
37678;DHT22;23517;50.390;8.616;2023-03-05T13:20:24;5.80;35.90
37678;DHT22;23517;50.390;8.616;2023-03-05T13:23:21;5.70;36.10
37678;DHT22;23517;50.390;8.616;2023-03-05T13:28:35;5.80;36.70
37678;DHT22;23517;50.390;8.616;2023-03-05T13:31:16;5.80;36.50
37678;DHT22;23517;50.390;8.616;2023-03-05T13:33:54;5.90;36.50
37678;DHT22;23517;50.390;8.616;2023-03-05T13:36:25;6.00;36.70
37678;DHT22;23517;50.390;8.616;2023-03-05T13:38:52;6.10;36.50
37678;DHT22;23517;50.390;8.616;2023-03-05T13:41:24;6.30;35.90
37678;DHT22;23517;50.390;8.616;2023-03-05T13:46:27;6.30;34.90
37678;DHT22;23517;50.390;8.616;2023-03-05T13:48:57;6.40;35.10
37678;DHT22;23517;50.390;8.616;2023-03-05T13:51:45;6.40;35.00
37678;DHT22;23517;50.390;8.616;2023-03-05T13:54:15;6.40;35.00
37678;DHT22;23517;50.390;8.616;2023-03-05T13:56:50;6.20;35.00
37678;DHT22;23517;50.390;8.616;2023-03-05T13:59:24;6.20;35.40
37678;DHT22;23517;50.390;8.616;2023-03-05T14:01:55;6.00;35.90
37678;DHT22;23517;50.390;8.616;2023-03-05T14:04:29;5.80;36.50
37678;DHT22;23517;50.390;8.616;2023-03-05T14:07:35;5.70;36.70
37678;DHT22;23517;50.390;8.616;2023-03-05T14:10:25;5.70;36.50
37678;DHT22;23517;50.390;8.616;2023-03-05T14:12:55;5.70;36.60
37678;DHT22;23517;50.390;8.616;2023-03-05T14:15:26;5.60;37.00
37678;DHT22;23517;50.390;8.616;2023-03-05T14:20:38;5.60;37.50
37678;DHT22;23517;50.390;8.616;2023-03-05T14:29:02;5.30;39.20
37678;DHT22;23517;50.390;8.616;2023-03-05T14:31:32;5.30;39.90
37678;DHT22;23517;50.390;8.616;2023-03-05T14:34:34;5.20;41.00
37678;DHT22;23517;50.390;8.616;2023-03-05T14:37:23;5.20;42.90
37678;DHT22;23517;50.390;8.616;2023-03-05T14:40:02;5.10;44.70
37678;DHT22;23517;50.390;8.616;2023-03-05T14:42:33;4.90;45.40
37678;DHT22;23517;50.390;8.616;2023-03-05T14:45:20;4.90;46.60
37678;DHT22;23517;50.390;8.616;2023-03-05T14:47:53;4.80;47.30
37678;DHT22;23517;50.390;8.616;2023-03-05T14:50:25;4.80;47.40
37678;DHT22;23517;50.390;8.616;2023-03-05T14:52:57;4.70;48.80
37678;DHT22;23517;50.390;8.616;2023-03-05T14:55:28;4.70;49.30
37678;DHT22;23517;50.390;8.616;2023-03-05T14:58:02;4.50;50.50
37678;DHT22;23517;50.390;8.616;2023-03-05T15:00:32;4.50;51.40
37678;DHT22;23517;50.390;8.616;2023-03-05T15:02:59;4.50;52.20
37678;DHT22;23517;50.390;8.616;2023-03-05T15:05:26;4.40;53.60
37678;DHT22;23517;50.390;8.616;2023-03-05T15:07:53;4.30;54.00
37678;DHT22;23517;50.390;8.616;2023-03-05T15:10:23;4.20;55.00
37678;DHT22;23517;50.390;8.616;2023-03-05T15:12:50;4.20;55.80
37678;DHT22;23517;50.390;8.616;2023-03-05T15:15:19;4.20;56.20
37678;DHT22;23517;50.390;8.616;2023-03-05T15:17:50;4.20;56.00
37678;DHT22;23517;50.390;8.616;2023-03-05T15:20:22;4.10;56.30
37678;DHT22;23517;50.390;8.616;2023-03-05T15:22:51;4.20;56.30
37678;DHT22;23517;50.390;8.616;2023-03-05T15:25:19;4.20;56.10
37678;DHT22;23517;50.390;8.616;2023-03-05T15:27:47;4.20;56.10
37678;DHT22;23517;50.390;8.616;2023-03-05T15:30:23;4.20;56.10
37678;DHT22;23517;50.390;8.616;2023-03-05T15:32:53;4.20;56.70
37678;DHT22;23517;50.390;8.616;2023-03-05T15:35:21;4.20;57.10
37678;DHT22;23517;50.390;8.616;2023-03-05T15:37:49;4.10;57.10
37678;DHT22;23517;50.390;8.616;2023-03-05T15:40:16;4.10;57.20
37678;DHT22;23517;50.390;8.616;2023-03-05T15:42:43;4.00;57.70
37678;DHT22;23517;50.390;8.616;2023-03-05T15:45:09;4.00;58.30
37678;DHT22;23517;50.390;8.616;2023-03-05T15:47:36;4.00;58.80
37678;DHT22;23517;50.390;8.616;2023-03-05T15:50:03;4.00;58.60
37678;DHT22;23517;50.390;8.616;2023-03-05T15:52:31;4.00;59.20
37678;DHT22;23517;50.390;8.616;2023-03-05T15:54:59;4.00;59.30
37678;DHT22;23517;50.390;8.616;2023-03-05T15:57:26;4.00;59.50
37678;DHT22;23517;50.390;8.616;2023-03-05T15:59:54;4.00;59.00
37678;DHT22;23517;50.390;8.616;2023-03-05T16:02:21;4.00;58.80
37678;DHT22;23517;50.390;8.616;2023-03-05T16:04:50;4.00;59.00
37678;DHT22;23517;50.390;8.616;2023-03-05T16:07:16;3.90;58.80
37678;DHT22;23517;50.390;8.616;2023-03-05T16:09:46;3.90;59.30
37678;DHT22;23517;50.390;8.616;2023-03-05T16:12:35;3.90;59.30
37678;DHT22;23517;50.390;8.616;2023-03-05T16:15:10;3.90;58.90
37678;DHT22;23517;50.390;8.616;2023-03-05T16:17:40;3.90;59.00
37678;DHT22;23517;50.390;8.616;2023-03-05T16:20:10;3.90;59.10
37678;DHT22;23517;50.390;8.616;2023-03-05T16:22:38;3.80;59.30
37678;DHT22;23517;50.390;8.616;2023-03-05T16:25:04;3.80;59.00
37678;DHT22;23517;50.390;8.616;2023-03-05T16:27:32;3.70;59.50
37678;DHT22;23517;50.390;8.616;2023-03-05T16:29:59;3.70;59.70
37678;DHT22;23517;50.390;8.616;2023-03-05T16:32:26;3.70;59.40
37678;DHT22;23517;50.390;8.616;2023-03-05T16:34:52;3.70;59.20
37678;DHT22;23517;50.390;8.616;2023-03-05T16:37:21;3.70;59.30
37678;DHT22;23517;50.390;8.616;2023-03-05T16:39:49;3.70;58.80
37678;DHT22;23517;50.390;8.616;2023-03-05T16:42:16;3.70;58.70
37678;DHT22;23517;50.390;8.616;2023-03-05T16:44:43;3.70;58.70
37678;DHT22;23517;50.390;8.616;2023-03-05T16:47:18;3.70;58.80
37678;DHT22;23517;50.390;8.616;2023-03-05T16:49:44;3.70;58.80
37678;DHT22;23517;50.390;8.616;2023-03-05T16:52:11;3.70;58.80
37678;DHT22;23517;50.390;8.616;2023-03-05T16:54:45;3.60;58.00
37678;DHT22;23517;50.390;8.616;2023-03-05T16:57:12;3.60;58.30
37678;DHT22;23517;50.390;8.616;2023-03-05T16:59:39;3.60;58.00
37678;DHT22;23517;50.390;8.616;2023-03-05T17:02:06;3.60;57.70
37678;DHT22;23517;50.390;8.616;2023-03-05T17:04:33;3.60;57.90
37678;DHT22;23517;50.390;8.616;2023-03-05T17:07:00;3.60;57.50
37678;DHT22;23517;50.390;8.616;2023-03-05T17:09:29;3.50;57.70
37678;DHT22;23517;50.390;8.616;2023-03-05T17:11:59;3.50;58.10
37678;DHT22;23517;50.390;8.616;2023-03-05T17:14:26;3.50;58.40
37678;DHT22;23517;50.390;8.616;2023-03-05T17:16:53;3.50;58.30
37678;DHT22;23517;50.390;8.616;2023-03-05T17:19:19;3.50;58.60
37678;DHT22;23517;50.390;8.616;2023-03-05T17:21:46;3.50;58.00
37678;DHT22;23517;50.390;8.616;2023-03-05T17:24:16;3.40;58.10
37678;DHT22;23517;50.390;8.616;2023-03-05T17:26:46;3.50;57.60
37678;DHT22;23517;50.390;8.616;2023-03-05T17:29:13;3.50;57.50
37678;DHT22;23517;50.390;8.616;2023-03-05T17:31:40;3.50;57.30
37678;DHT22;23517;50.390;8.616;2023-03-05T17:34:07;3.50;57.20
37678;DHT22;23517;50.390;8.616;2023-03-05T17:36:33;3.50;56.90
37678;DHT22;23517;50.390;8.616;2023-03-05T17:39:00;3.50;56.90
37678;DHT22;23517;50.390;8.616;2023-03-05T17:41:27;3.50;57.00
37678;DHT22;23517;50.390;8.616;2023-03-05T17:43:53;3.50;56.60
37678;DHT22;23517;50.390;8.616;2023-03-05T17:46:20;3.50;56.40
37678;DHT22;23517;50.390;8.616;2023-03-05T17:48:47;3.50;56.60
37678;DHT22;23517;50.390;8.616;2023-03-05T17:51:14;3.50;56.70
37678;DHT22;23517;50.390;8.616;2023-03-05T17:53:42;3.40;56.40
37678;DHT22;23517;50.390;8.616;2023-03-05T17:56:09;3.50;56.40